sensor_id;sensor_type;location;lat;lon;timestamp;pressure;altitude;pressure_sealevel;temperature;humidity
71976;BME280;60680;52.182;5.398;2023-02-13T00:02:25;103825.03;;;7.21;83.49
71976;BME280;60680;52.182;5.398;2023-02-13T00:04:51;103826.72;;;7.20;83.44
71976;BME280;60680;52.182;5.398;2023-02-13T00:07:18;103820.69;;;7.20;83.50
71976;BME280;60680;52.182;5.398;2023-02-13T00:09:44;103823.28;;;7.20;83.71
71976;BME280;60680;52.182;5.398;2023-02-13T00:12:11;103828.44;;;7.18;83.58
71976;BME280;60680;52.182;5.398;2023-02-13T00:14:38;103827.56;;;7.18;83.64
71976;BME280;60680;52.182;5.398;2023-02-13T00:17:05;103822.38;;;7.16;82.96
71976;BME280;60680;52.182;5.398;2023-02-13T00:19:32;103818.09;;;7.17;83.18
71976;BME280;60680;52.182;5.398;2023-02-13T00:21:58;103816.34;;;7.17;83.42
71976;BME280;60680;52.182;5.398;2023-02-13T00:24:25;103811.19;;;7.17;83.86
71976;BME280;60680;52.182;5.398;2023-02-13T00:26:51;103814.59;;;7.14;83.87
71976;BME280;60680;52.182;5.398;2023-02-13T00:29:18;103812.00;;;7.13;83.28
71976;BME280;60680;52.182;5.398;2023-02-13T00:31:44;103813.66;;;7.09;83.41
71976;BME280;60680;52.182;5.398;2023-02-13T00:34:11;103805.91;;;7.09;83.61
71976;BME280;60680;52.182;5.398;2023-02-13T00:36:37;103811.06;;;7.09;82.99
71976;BME280;60680;52.182;5.398;2023-02-13T00:39:04;103802.44;;;7.09;83.72
71976;BME280;60680;52.182;5.398;2023-02-13T00:41:31;103809.34;;;7.08;83.44
71976;BME280;60680;52.182;5.398;2023-02-13T00:43:57;103809.38;;;7.10;83.38
71976;BME280;60680;52.182;5.398;2023-02-13T00:46:23;103804.19;;;7.10;83.65
71976;BME280;60680;52.182;5.398;2023-02-13T00:48:50;103806.78;;;7.10;83.90
71976;BME280;60680;52.182;5.398;2023-02-13T00:51:16;103805.06;;;7.10;83.48
71976;BME280;60680;52.182;5.398;2023-02-13T00:53:43;103805.91;;;7.09;83.95
71976;BME280;60680;52.182;5.398;2023-02-13T00:56:09;103799.84;;;7.09;83.74
71976;BME280;60680;52.182;5.398;2023-02-13T00:58:36;103793.81;;;7.08;83.91
71976;BME280;60680;52.182;5.398;2023-02-13T01:01:03;103792.94;;;7.08;83.55
71976;BME280;60680;52.182;5.398;2023-02-13T01:03:29;103804.19;;;7.10;83.78
71976;BME280;60680;52.182;5.398;2023-02-13T01:05:56;103794.69;;;7.10;84.19
71976;BME280;60680;52.182;5.398;2023-02-13T01:08:24;103798.97;;;7.07;83.66
71976;BME280;60680;52.182;5.398;2023-02-13T01:10:50;103801.56;;;7.07;84.01
71976;BME280;60680;52.182;5.398;2023-02-13T01:13:17;103807.59;;;7.06;84.23
71976;BME280;60680;52.182;5.398;2023-02-13T01:15:44;103805.00;;;7.07;84.27
71976;BME280;60680;52.182;5.398;2023-02-13T01:18:13;103802.41;;;7.07;83.80
71976;BME280;60680;52.182;5.398;2023-02-13T01:20:50;103799.81;;;7.07;84.19
71976;BME280;60680;52.182;5.398;2023-02-13T01:23:21;103809.28;;;7.05;83.91
71976;BME280;60680;52.182;5.398;2023-02-13T01:25:47;103811.03;;;7.05;83.84
71976;BME280;60680;52.182;5.398;2023-02-13T01:28:13;103806.69;;;7.05;84.06
71976;BME280;60680;52.182;5.398;2023-02-13T01:30:40;103800.66;;;7.05;84.37
71976;BME280;60680;52.182;5.398;2023-02-13T01:33:08;103802.41;;;7.04;84.19
71976;BME280;60680;52.182;5.398;2023-02-13T01:35:38;103797.22;;;7.04;84.28
71976;BME280;60680;52.182;5.398;2023-02-13T01:38:05;103798.88;;;7.01;83.99
71976;BME280;60680;52.182;5.398;2023-02-13T01:40:31;103798.03;;;7.00;83.94
71976;BME280;60680;52.182;5.398;2023-02-13T01:42:58;103791.97;;;7.00;84.13
71976;BME280;60680;52.182;5.398;2023-02-13T01:45:29;103790.22;;;6.99;84.05
71976;BME280;60680;52.182;5.398;2023-02-13T01:50:37;103789.41;;;7.01;84.30
71976;BME280;60680;52.182;5.398;2023-02-13T01:53:13;103787.69;;;7.02;84.11
71976;BME280;60680;52.182;5.398;2023-02-13T01:55:47;103780.78;;;6.99;84.63
71976;BME280;60680;52.182;5.398;2023-02-13T01:58:17;103785.06;;;6.97;84.11
71976;BME280;60680;52.182;5.398;2023-02-13T02:00:45;103792.75;;;6.94;84.27
71976;BME280;60680;52.182;5.398;2023-02-13T02:03:20;103786.72;;;6.93;84.33
71976;BME280;60680;52.182;5.398;2023-02-13T02:05:50;103792.75;;;6.94;83.90
71976;BME280;60680;52.182;5.398;2023-02-13T02:08:18;103779.00;;;6.95;84.32
71976;BME280;60680;52.182;5.398;2023-02-13T02:10:45;103778.94;;;6.92;84.14
71976;BME280;60680;52.182;5.398;2023-02-13T02:13:14;103772.03;;;6.91;84.12
71976;BME280;60680;52.182;5.398;2023-02-13T02:15:44;103771.16;;;6.92;84.31
71976;BME280;60680;52.182;5.398;2023-02-13T02:18:22;103771.19;;;6.93;83.90
71976;BME280;60680;52.182;5.398;2023-02-13T02:23:52;103770.34;;;6.96;83.94
71976;BME280;60680;52.182;5.398;2023-02-13T02:32:30;103768.63;;;6.95;84.53
71976;BME280;60680;52.182;5.398;2023-02-13T02:43:16;103772.91;;;6.91;84.85
71976;BME280;60680;52.182;5.398;2023-02-13T02:48:29;103760.84;;;6.93;84.32
71976;BME280;60680;52.182;5.398;2023-02-13T02:51:18;103768.56;;;6.92;84.86
71976;BME280;60680;52.182;5.398;2023-02-13T02:53:59;103771.19;;;6.93;85.07
71976;BME280;60680;52.182;5.398;2023-02-13T02:56:36;103761.69;;;6.92;84.71
71976;BME280;60680;52.182;5.398;2023-02-13T02:59:12;103768.56;;;6.92;84.36
71976;BME280;60680;52.182;5.398;2023-02-13T03:02:00;103766.84;;;6.91;84.60
71976;BME280;60680;52.182;5.398;2023-02-13T03:04:48;103763.41;;;6.92;84.93
71976;BME280;60680;52.182;5.398;2023-02-13T03:07:35;103760.78;;;6.90;84.79
71976;BME280;60680;52.182;5.398;2023-02-13T03:10:10;103760.78;;;6.90;84.68
71976;BME280;60680;52.182;5.398;2023-02-13T03:13:09;103760.78;;;6.90;84.74
71976;BME280;60680;52.182;5.398;2023-02-13T03:15:51;103768.56;;;6.90;84.82
71976;BME280;60680;52.182;5.398;2023-02-13T03:18:42;103762.50;;;6.90;84.70
71976;BME280;60680;52.182;5.398;2023-02-13T03:24:22;103770.28;;;6.90;85.28
71976;BME280;60680;52.182;5.398;2023-02-13T03:27:07;103768.56;;;6.90;85.23
71976;BME280;60680;52.182;5.398;2023-02-13T03:29:44;103764.28;;;6.91;85.22
71976;BME280;60680;52.182;5.398;2023-02-13T03:33:11;103771.16;;;6.89;85.27
71976;BME280;60680;52.182;5.398;2023-02-13T03:35:48;103768.56;;;6.90;84.42
71976;BME280;60680;52.182;5.398;2023-02-13T03:38:45;103765.97;;;6.89;84.54
71976;BME280;60680;52.182;5.398;2023-02-13T03:41:29;103760.78;;;6.89;85.24
71976;BME280;60680;52.182;5.398;2023-02-13T03:46:49;103767.69;;;6.90;85.40
71976;BME280;60680;52.182;5.398;2023-02-13T03:49:45;103756.50;;;6.92;84.84
71976;BME280;60680;52.182;5.398;2023-02-13T03:52:32;103758.19;;;6.89;85.56
71976;BME280;60680;52.182;5.398;2023-02-13T03:55:16;103759.94;;;6.90;85.20
71976;BME280;60680;52.182;5.398;2023-02-13T03:58:05;103760.78;;;6.89;85.32
71976;BME280;60680;52.182;5.398;2023-02-13T04:00:55;103756.47;;;6.89;85.64
71976;BME280;60680;52.182;5.398;2023-02-13T04:03:36;103759.91;;;6.88;85.58
71976;BME280;60680;52.182;5.398;2023-02-13T04:06:10;103764.22;;;6.88;85.78
71976;BME280;60680;52.182;5.398;2023-02-13T04:08:38;103756.44;;;6.88;85.66
71976;BME280;60680;52.182;5.398;2023-02-13T04:11:30;103759.06;;;6.89;85.97
71976;BME280;60680;52.182;5.398;2023-02-13T04:14:01;103757.31;;;6.88;85.85
71976;BME280;60680;52.182;5.398;2023-02-13T04:16:40;103752.13;;;6.87;85.59
71976;BME280;60680;52.182;5.398;2023-02-13T04:19:08;103758.19;;;6.87;85.77
71976;BME280;60680;52.182;5.398;2023-02-13T04:21:38;103765.94;;;6.87;85.40
71976;BME280;60680;52.182;5.398;2023-02-13T04:24:06;103760.75;;;6.86;85.53
71976;BME280;60680;52.182;5.398;2023-02-13T04:26:38;103758.19;;;6.87;85.66
71976;BME280;60680;52.182;5.398;2023-02-13T04:29:05;103757.28;;;6.85;85.96
71976;BME280;60680;52.182;5.398;2023-02-13T04:31:31;103757.25;;;6.84;86.15
71976;BME280;60680;52.182;5.398;2023-02-13T04:33:59;103752.94;;;6.83;85.79
71976;BME280;60680;52.182;5.398;2023-02-13T04:36:25;103747.78;;;6.83;86.07
71976;BME280;60680;52.182;5.398;2023-02-13T04:38:52;103754.69;;;6.82;85.83
71976;BME280;60680;52.182;5.398;2023-02-13T04:41:18;103752.91;;;6.81;86.51
71976;BME280;60680;52.182;5.398;2023-02-13T04:43:45;103755.53;;;6.83;86.23
71976;BME280;60680;52.182;5.398;2023-02-13T04:46:11;103750.34;;;6.83;86.07
71976;BME280;60680;52.182;5.398;2023-02-13T04:48:38;103752.94;;;6.83;86.24
71976;BME280;60680;52.182;5.398;2023-02-13T04:51:04;103750.34;;;6.83;86.26
71976;BME280;60680;52.182;5.398;2023-02-13T04:53:31;103748.63;;;6.83;86.58
71976;BME280;60680;52.182;5.398;2023-02-13T04:55:57;103747.81;;;6.84;86.54
71976;BME280;60680;52.182;5.398;2023-02-13T04:58:24;103748.66;;;6.85;86.20
71976;BME280;60680;52.182;5.398;2023-02-13T05:00:50;103741.75;;;6.85;85.82
71976;BME280;60680;52.182;5.398;2023-02-13T05:03:17;103742.63;;;6.84;86.10
71976;BME280;60680;52.182;5.398;2023-02-13T05:05:43;103742.59;;;6.83;86.56
71976;BME280;60680;52.182;5.398;2023-02-13T05:08:10;103733.06;;;6.82;86.72
71976;BME280;60680;52.182;5.398;2023-02-13T05:10:36;103733.06;;;6.82;86.31
71976;BME280;60680;52.182;5.398;2023-02-13T05:13:03;103727.03;;;6.81;86.23
71976;BME280;60680;52.182;5.398;2023-02-13T05:15:29;103730.50;;;6.82;86.59
71976;BME280;60680;52.182;5.398;2023-02-13T05:17:56;103723.59;;;6.81;86.59
71976;BME280;60680;52.182;5.398;2023-02-13T05:20:22;103725.31;;;6.80;87.26
71976;BME280;60680;52.182;5.398;2023-02-13T05:22:51;103725.28;;;6.79;86.62
71976;BME280;60680;52.182;5.398;2023-02-13T05:25:39;103730.47;;;6.79;86.97
71976;BME280;60680;52.182;5.398;2023-02-13T05:28:06;103726.16;;;6.79;nan
71976;BME280;60680;52.182;5.398;2023-02-13T05:30:56;103727.00;;;6.80;87.13
71976;BME280;60680;52.182;5.398;2023-02-13T05:33:23;103720.97;;;6.79;87.59
71976;BME280;60680;52.182;5.398;2023-02-13T05:35:50;103726.16;;;6.79;87.12
71976;BME280;60680;52.182;5.398;2023-02-13T05:38:16;103726.19;;;6.81;87.28
71976;BME280;60680;52.182;5.398;2023-02-13T05:40:43;103724.41;;;6.80;87.35
71976;BME280;60680;52.182;5.398;2023-02-13T05:43:09;103728.72;;;6.78;87.79
71976;BME280;60680;52.182;5.398;2023-02-13T05:45:36;103728.72;;;6.78;87.62
71976;BME280;60680;52.182;5.398;2023-02-13T05:48:02;103720.13;;;6.79;87.27
71976;BME280;60680;52.182;5.398;2023-02-13T05:50:29;103723.56;;;6.79;87.50
71976;BME280;60680;52.182;5.398;2023-02-13T05:52:55;103726.16;;;6.79;88.05
71976;BME280;60680;52.182;5.398;2023-02-13T05:55:22;103733.94;;;6.81;87.18
71976;BME280;60680;52.182;5.398;2023-02-13T05:57:48;103726.16;;;6.79;87.39
71976;BME280;60680;52.182;5.398;2023-02-13T06:00:15;103724.41;;;6.80;87.85
71976;BME280;60680;52.182;5.398;2023-02-13T06:02:42;103720.13;;;6.79;87.90
71976;BME280;60680;52.182;5.398;2023-02-13T06:05:08;103728.75;;;6.79;88.10
71976;BME280;60680;52.182;5.398;2023-02-13T06:07:35;103728.75;;;6.79;87.81
71976;BME280;60680;52.182;5.398;2023-02-13T06:10:01;103732.19;;;6.80;87.81
71976;BME280;60680;52.182;5.398;2023-02-13T06:12:28;103734.78;;;6.80;87.52
71976;BME280;60680;52.182;5.398;2023-02-13T06:14:54;103729.59;;;6.80;88.40
71976;BME280;60680;52.182;5.398;2023-02-13T06:17:20;103728.75;;;6.79;88.27
71976;BME280;60680;52.182;5.398;2023-02-13T06:19:47;103731.31;;;6.79;88.15
71976;BME280;60680;52.182;5.398;2023-02-13T06:22:13;103737.38;;;6.80;88.04
71976;BME280;60680;52.182;5.398;2023-02-13T06:24:40;103737.38;;;6.80;88.35
71976;BME280;60680;52.182;5.398;2023-02-13T06:27:06;103735.63;;;6.79;88.48
71976;BME280;60680;52.182;5.398;2023-02-13T06:29:33;103735.63;;;6.79;88.94
71976;BME280;60680;52.182;5.398;2023-02-13T06:31:59;103736.50;;;6.79;88.27
71976;BME280;60680;52.182;5.398;2023-02-13T06:34:25;103736.53;;;6.81;88.69
71976;BME280;60680;52.182;5.398;2023-02-13T06:36:52;103730.50;;;6.82;88.62
71976;BME280;60680;52.182;5.398;2023-02-13T06:39:18;103727.91;;;6.80;88.64
71976;BME280;60680;52.182;5.398;2023-02-13T06:41:45;103734.81;;;6.81;88.61
71976;BME280;60680;52.182;5.398;2023-02-13T06:44:11;103735.66;;;6.80;88.54
71976;BME280;60680;52.182;5.398;2023-02-13T06:46:37;103737.38;;;6.81;88.44
71976;BME280;60680;52.182;5.398;2023-02-13T06:49:04;103733.97;;;6.82;88.88
71976;BME280;60680;52.182;5.398;2023-02-13T06:51:30;103739.16;;;6.82;89.13
71976;BME280;60680;52.182;5.398;2023-02-13T06:53:57;103737.41;;;6.83;88.68
71976;BME280;60680;52.182;5.398;2023-02-13T06:56:23;103736.56;;;6.84;88.67
71976;BME280;60680;52.182;5.398;2023-02-13T06:58:51;103740.91;;;6.85;88.89
71976;BME280;60680;52.182;5.398;2023-02-13T07:01:18;103741.72;;;6.84;89.08
71976;BME280;60680;52.182;5.398;2023-02-13T07:03:44;103740.91;;;6.85;89.10
71976;BME280;60680;52.182;5.398;2023-02-13T07:06:18;103741.78;;;6.87;89.27
71976;BME280;60680;52.182;5.398;2023-02-13T07:08:46;103749.53;;;6.85;89.24
71976;BME280;60680;52.182;5.398;2023-02-13T07:11:19;103756.41;;;6.86;88.87
71976;BME280;60680;52.182;5.398;2023-02-13T07:13:45;103751.25;;;6.86;89.30
71976;BME280;60680;52.182;5.398;2023-02-13T07:16:12;103754.72;;;6.87;88.92
71976;BME280;60680;52.182;5.398;2023-02-13T07:18:38;103754.72;;;6.88;88.98
71976;BME280;60680;52.182;5.398;2023-02-13T07:21:05;103763.38;;;6.90;89.14
71976;BME280;60680;52.182;5.398;2023-02-13T07:23:32;103751.31;;;6.89;89.03
71976;BME280;60680;52.182;5.398;2023-02-13T07:25:59;103753.91;;;6.91;89.39
71976;BME280;60680;52.182;5.398;2023-02-13T07:28:27;103756.50;;;6.92;89.25
71976;BME280;60680;52.182;5.398;2023-02-13T07:30:54;103747.88;;;6.92;89.78
71976;BME280;60680;52.182;5.398;2023-02-13T07:33:22;103753.06;;;6.93;89.17
71976;BME280;60680;52.182;5.398;2023-02-13T07:35:50;103741.84;;;6.94;89.51
71976;BME280;60680;52.182;5.398;2023-02-13T07:38:17;103743.59;;;6.96;89.73
71976;BME280;60680;52.182;5.398;2023-02-13T07:40:44;103747.06;;;6.96;89.69
71976;BME280;60680;52.182;5.398;2023-02-13T07:43:11;103753.13;;;6.98;89.86
71976;BME280;60680;52.182;5.398;2023-02-13T07:45:38;103753.13;;;6.98;89.26
71976;BME280;60680;52.182;5.398;2023-02-13T07:48:05;103756.59;;;7.00;89.31
71976;BME280;60680;52.182;5.398;2023-02-13T07:50:31;103760.09;;;7.04;89.84
71976;BME280;60680;52.182;5.398;2023-02-13T07:53:00;103764.44;;;7.06;89.53
71976;BME280;60680;52.182;5.398;2023-02-13T07:55:28;103762.75;;;7.08;89.11
71976;BME280;60680;52.182;5.398;2023-02-13T07:57:55;103768.81;;;7.10;90.00
71976;BME280;60680;52.182;5.398;2023-02-13T08:00:22;103767.94;;;7.11;89.13
71976;BME280;60680;52.182;5.398;2023-02-13T08:02:48;103769.69;;;7.12;89.30
71976;BME280;60680;52.182;5.398;2023-02-13T08:05:15;103769.69;;;7.12;89.33
71976;BME280;60680;52.182;5.398;2023-02-13T08:07:41;103781.81;;;7.17;89.90
71976;BME280;60680;52.182;5.398;2023-02-13T08:10:10;103779.22;;;7.18;90.00
71976;BME280;60680;52.182;5.398;2023-02-13T08:12:56;103783.59;;;7.22;89.74
71976;BME280;60680;52.182;5.398;2023-02-13T08:15:22;103781.91;;;7.23;90.29
71976;BME280;60680;52.182;5.398;2023-02-13T08:17:49;103782.78;;;7.26;89.68
71976;BME280;60680;52.182;5.398;2023-02-13T08:20:15;103784.53;;;7.27;89.84
71976;BME280;60680;52.182;5.398;2023-02-13T08:22:42;103786.31;;;7.31;89.46
71976;BME280;60680;52.182;5.398;2023-02-13T08:25:08;103792.38;;;7.33;89.43
71976;BME280;60680;52.182;5.398;2023-02-13T08:27:35;103782.03;;;7.37;89.36
71976;BME280;60680;52.182;5.398;2023-02-13T08:30:02;103788.97;;;7.41;89.47
71976;BME280;60680;52.182;5.398;2023-02-13T08:32:29;103780.38;;;7.43;89.42
71976;BME280;60680;52.182;5.398;2023-02-13T08:34:55;103779.53;;;7.46;89.62
71976;BME280;60680;52.182;5.398;2023-02-13T08:37:22;103779.56;;;7.49;89.61
71976;BME280;60680;52.182;5.398;2023-02-13T08:39:49;103783.94;;;7.53;89.32
71976;BME280;60680;52.182;5.398;2023-02-13T08:42:15;103778.78;;;7.58;89.46
71976;BME280;60680;52.182;5.398;2023-02-13T08:44:42;103780.56;;;7.62;89.44
71976;BME280;60680;52.182;5.398;2023-02-13T08:47:08;103783.22;;;7.68;89.32
71976;BME280;60680;52.182;5.398;2023-02-13T08:49:35;103784.97;;;7.72;88.97
71976;BME280;60680;52.182;5.398;2023-02-13T08:52:02;103780.69;;;7.77;88.98
71976;BME280;60680;52.182;5.398;2023-02-13T08:54:29;103789.41;;;7.82;88.87
71976;BME280;60680;52.182;5.398;2023-02-13T08:56:56;103789.38;;;7.84;88.71
71976;BME280;60680;52.182;5.398;2023-02-13T08:59:23;103784.25;;;7.87;89.06
71976;BME280;60680;52.182;5.398;2023-02-13T09:01:50;103781.72;;;7.93;89.00
71976;BME280;60680;52.182;5.398;2023-02-13T09:04:16;103783.44;;;7.95;88.47
71976;BME280;60680;52.182;5.398;2023-02-13T09:06:43;103780.06;;;8.01;88.60
71976;BME280;60680;52.182;5.398;2023-02-13T09:09:10;103785.25;;;8.07;88.11
71976;BME280;60680;52.182;5.398;2023-02-13T09:11:36;103781.00;;;8.14;87.76
71976;BME280;60680;52.182;5.398;2023-02-13T09:14:03;103775.84;;;8.20;88.32
71976;BME280;60680;52.182;5.398;2023-02-13T09:16:30;103775.91;;;8.25;88.12
71976;BME280;60680;52.182;5.398;2023-02-13T09:18:56;103777.63;;;8.27;87.37
71976;BME280;60680;52.182;5.398;2023-02-13T09:21:22;103776.78;;;8.30;87.71
71976;BME280;60680;52.182;5.398;2023-02-13T09:23:49;103776.81;;;8.36;86.63
71976;BME280;60680;52.182;5.398;2023-02-13T09:26:17;103778.63;;;8.43;87.49
71976;BME280;60680;52.182;5.398;2023-02-13T09:28:45;103778.69;;;8.54;86.80
71976;BME280;60680;52.182;5.398;2023-02-13T09:31:15;103778.72;;;8.57;86.72
71976;BME280;60680;52.182;5.398;2023-02-13T09:33:43;103783.91;;;8.60;86.30
71976;BME280;60680;52.182;5.398;2023-02-13T09:36:13;103781.31;;;8.65;86.37
71976;BME280;60680;52.182;5.398;2023-02-13T09:38:41;103774.41;;;8.67;85.77
71976;BME280;60680;52.182;5.398;2023-02-13T09:41:14;103774.44;;;8.68;85.96
71976;BME280;60680;52.182;5.398;2023-02-13T09:43:49;103777.91;;;8.70;85.78
71976;BME280;60680;52.182;5.398;2023-02-13T09:46:18;103775.31;;;8.75;84.84
71976;BME280;60680;52.182;5.398;2023-02-13T09:48:50;103773.59;;;8.77;84.67
71976;BME280;60680;52.182;5.398;2023-02-13T09:51:19;103777.06;;;8.79;85.63
71976;BME280;60680;52.182;5.398;2023-02-13T09:53:57;103774.50;;;8.82;85.50
71976;BME280;60680;52.182;5.398;2023-02-13T09:56:50;103778.00;;;8.89;84.61
71976;BME280;60680;52.182;5.398;2023-02-13T09:59:34;103770.19;;;8.87;84.64
71976;BME280;60680;52.182;5.398;2023-02-13T10:08:02;103778.91;;;9.09;85.22
71976;BME280;60680;52.182;5.398;2023-02-13T10:15:51;103779.03;;;9.82;82.21
71976;BME280;60680;52.182;5.398;2023-02-13T10:18:28;103778.16;;;10.03;80.59
71976;BME280;60680;52.182;5.398;2023-02-13T10:21:00;103777.28;;;10.22;80.06
71976;BME280;60680;52.182;5.398;2023-02-13T10:23:32;103774.72;;;10.33;79.92
71976;BME280;60680;52.182;5.398;2023-02-13T10:26:01;103771.22;;;10.38;78.74
71976;BME280;60680;52.182;5.398;2023-02-13T10:31:09;103763.41;;;10.11;79.68
71976;BME280;60680;52.182;5.398;2023-02-13T10:33:49;103766.03;;;10.05;79.43
71976;BME280;60680;52.182;5.398;2023-02-13T10:36:26;103767.78;;;9.81;79.01
71976;BME280;60680;52.182;5.398;2023-02-13T10:38:56;103767.78;;;9.66;80.07
71976;BME280;60680;52.182;5.398;2023-02-13T10:41:54;103763.44;;;9.62;80.74
71976;BME280;60680;52.182;5.398;2023-02-13T10:55:59;103754.69;;;10.55;80.20
71976;BME280;60680;52.182;5.398;2023-02-13T11:01:24;103757.16;;;10.86;77.48
71976;BME280;60680;52.182;5.398;2023-02-13T11:04:10;103756.25;;;10.97;77.99
71976;BME280;60680;52.182;5.398;2023-02-13T11:06:42;103749.25;;;11.06;76.74
71976;BME280;60680;52.182;5.398;2023-02-13T11:09:08;103738.75;;;11.16;76.88
71976;BME280;60680;52.182;5.398;2023-02-13T11:11:40;103739.53;;;11.29;76.18
71976;BME280;60680;52.182;5.398;2023-02-13T11:14:22;103737.78;;;11.33;74.65
71976;BME280;60680;52.182;5.398;2023-02-13T11:17:05;103741.34;;;11.22;74.64
71976;BME280;60680;52.182;5.398;2023-02-13T11:19:39;103739.59;;;11.25;74.17
71976;BME280;60680;52.182;5.398;2023-02-13T11:22:15;103732.59;;;11.31;73.84
71976;BME280;60680;52.182;5.398;2023-02-13T11:25:06;103733.34;;;11.42;74.38
71976;BME280;60680;52.182;5.398;2023-02-13T11:27:36;103726.31;;;11.54;74.15
71976;BME280;60680;52.182;5.398;2023-02-13T11:30:07;103719.38;;;11.51;72.86
71976;BME280;60680;52.182;5.398;2023-02-13T11:32:58;103727.22;;;11.51;73.49
71976;BME280;60680;52.182;5.398;2023-02-13T11:35:31;103716.69;;;11.62;72.63
71976;BME280;60680;52.182;5.398;2023-02-13T11:40:37;103721.75;;;11.82;73.38
71976;BME280;60680;52.182;5.398;2023-02-13T11:43:07;103713.84;;;11.90;72.88
71976;BME280;60680;52.182;5.398;2023-02-13T11:45:39;103710.31;;;11.97;72.37
71976;BME280;60680;52.182;5.398;2023-02-13T11:48:20;103704.19;;;12.01;71.07
71976;BME280;60680;52.182;5.398;2023-02-13T11:50:51;103707.63;;;12.04;71.65
71976;BME280;60680;52.182;5.398;2023-02-13T11:53:22;103705.03;;;12.03;71.24
71976;BME280;60680;52.182;5.398;2023-02-13T11:56:14;103704.16;;;12.02;71.08
71976;BME280;60680;52.182;5.398;2023-02-13T11:58:41;103699.91;;;11.94;71.95
71976;BME280;60680;52.182;5.398;2023-02-13T12:06:22;103685.09;;;11.96;71.15
71976;BME280;60680;52.182;5.398;2023-02-13T12:08:49;103678.97;;;12.01;72.18
71976;BME280;60680;52.182;5.398;2023-02-13T12:11:39;103684.13;;;12.06;71.89
71976;BME280;60680;52.182;5.398;2023-02-13T12:14:15;103676.28;;;12.04;71.50
71976;BME280;60680;52.182;5.398;2023-02-13T12:16:48;103674.53;;;12.07;70.65
71976;BME280;60680;52.182;5.398;2023-02-13T12:19:21;103676.16;;;12.20;71.22
71976;BME280;60680;52.182;5.398;2023-02-13T12:25:52;103676.63;;;12.51;71.24
71976;BME280;60680;52.182;5.398;2023-02-13T12:29:09;103674.78;;;12.58;69.02
71976;BME280;60680;52.182;5.398;2023-02-13T12:31:38;103666.63;;;12.81;68.55
71976;BME280;60680;52.182;5.398;2023-02-13T12:40:00;103664.78;;;13.93;64.29
71976;BME280;60680;52.182;5.398;2023-02-13T12:45:07;103666.16;;;13.68;64.83
71976;BME280;60680;52.182;5.398;2023-02-13T12:47:46;103658.88;;;13.35;64.61
71976;BME280;60680;52.182;5.398;2023-02-13T13:01:38;103649.22;;;13.39;65.33
71976;BME280;60680;52.182;5.398;2023-02-13T13:05:00;103652.22;;;14.11;64.94
71976;BME280;60680;52.182;5.398;2023-02-13T13:08:07;103650.81;;;13.94;63.56
71976;BME280;60680;52.182;5.398;2023-02-13T13:13:45;103641.75;;;13.14;65.20
71976;BME280;60680;52.182;5.398;2023-02-13T13:16:25;103631.66;;;12.90;66.36
71976;BME280;60680;52.182;5.398;2023-02-13T13:21:59;103622.38;;;12.70;67.52
71976;BME280;60680;52.182;5.398;2023-02-13T13:24:36;103615.50;;;12.63;67.74
71976;BME280;60680;52.182;5.398;2023-02-13T13:27:19;103614.78;;;12.53;67.44
71976;BME280;60680;52.182;5.398;2023-02-13T13:29:54;103619.28;;;12.42;67.33
71976;BME280;60680;52.182;5.398;2023-02-13T13:32:23;103615.06;;;12.32;67.42
71976;BME280;60680;52.182;5.398;2023-02-13T13:34:52;103610.81;;;12.24;68.30
71976;BME280;60680;52.182;5.398;2023-02-13T13:37:34;103606.50;;;12.22;68.95
71976;BME280;60680;52.182;5.398;2023-02-13T13:43:04;103601.34;;;12.16;68.66
71976;BME280;60680;52.182;5.398;2023-02-13T13:45:45;103594.34;;;12.19;69.16
71976;BME280;60680;52.182;5.398;2023-02-13T13:50:46;103592.69;;;12.14;68.66
71976;BME280;60680;52.182;5.398;2023-02-13T13:53:18;103595.31;;;12.12;69.12
71976;BME280;60680;52.182;5.398;2023-02-13T14:03:58;103585.84;;;12.05;69.50
71976;BME280;60680;52.182;5.398;2023-02-13T14:06:27;103580.69;;;11.99;69.96
71976;BME280;60680;52.182;5.398;2023-02-13T14:11:52;103578.94;;;11.98;70.03
71976;BME280;60680;52.182;5.398;2023-02-13T14:16:57;103577.22;;;11.97;70.11
71976;BME280;60680;52.182;5.398;2023-02-13T14:19:38;103578.09;;;11.97;70.23
71976;BME280;60680;52.182;5.398;2023-02-13T14:24:56;103569.47;;;11.92;69.67
71976;BME280;60680;52.182;5.398;2023-02-13T14:27:30;103568.63;;;11.89;69.55
71976;BME280;60680;52.182;5.398;2023-02-13T14:29:58;103572.09;;;11.86;69.28
71976;BME280;60680;52.182;5.398;2023-02-13T14:32:36;103573.81;;;11.87;70.51
71976;BME280;60680;52.182;5.398;2023-02-13T14:37:54;103566.88;;;11.91;70.39
71976;BME280;60680;52.182;5.398;2023-02-13T14:43:20;103566.03;;;11.89;70.00
71976;BME280;60680;52.182;5.398;2023-02-13T14:45:54;103559.94;;;11.83;70.29
71976;BME280;60680;52.182;5.398;2023-02-13T14:48:31;103558.25;;;11.81;70.03
71976;BME280;60680;52.182;5.398;2023-02-13T14:50:59;103560.91;;;11.78;70.29
71976;BME280;60680;52.182;5.398;2023-02-13T14:53:38;103554.84;;;11.76;70.06
71976;BME280;60680;52.182;5.398;2023-02-13T14:56:12;103560.06;;;11.73;70.10
71976;BME280;60680;52.182;5.398;2023-02-13T14:58:47;103555.75;;;11.69;70.42
71976;BME280;60680;52.182;5.398;2023-02-13T15:01:36;103557.50;;;11.68;70.73
71976;BME280;60680;52.182;5.398;2023-02-13T15:04:16;103553.22;;;11.64;69.48
71976;BME280;60680;52.182;5.398;2023-02-13T15:06:45;103554.13;;;11.61;70.30
71976;BME280;60680;52.182;5.398;2023-02-13T15:09:29;103553.25;;;11.62;70.59
71976;BME280;60680;52.182;5.398;2023-02-13T15:11:58;103556.72;;;11.60;70.50
71976;BME280;60680;52.182;5.398;2023-02-13T15:14:33;103556.78;;;11.58;70.61
71976;BME280;60680;52.182;5.398;2023-02-13T15:17:21;103555.88;;;11.59;71.05
71976;BME280;60680;52.182;5.398;2023-02-13T15:19:52;103560.25;;;11.57;70.74
71976;BME280;60680;52.182;5.398;2023-02-13T15:22:34;103553.31;;;11.56;70.68
71976;BME280;60680;52.182;5.398;2023-02-13T15:25:02;103555.94;;;11.55;70.75